createdAt,value
2023-05-01T00:00:06.140Z,100766.22
2023-05-01T00:05:09.751Z,100759.84
2023-05-01T00:10:12.109Z,100739.97
2023-05-01T00:15:14.384Z,100754.81
2023-05-01T00:20:16.954Z,100749.84
2023-05-01T00:25:19.165Z,100749.19
2023-05-01T00:30:21.309Z,100747.50
2023-05-01T00:35:23.461Z,100748.03
2023-05-01T00:40:25.889Z,100726.56
2023-05-01T00:45:28.032Z,100734.56
2023-05-01T00:50:30.615Z,100728.09
2023-05-01T00:55:33.827Z,100748.44
2023-05-01T01:00:35.994Z,100741.19
2023-05-01T01:05:47.208Z,100745.56
2023-05-01T01:11:06.648Z,100736.97
2023-05-01T01:16:36.641Z,100730.28
2023-05-01T01:21:42.969Z,100749.34
2023-05-01T01:26:47.772Z,100749.37
2023-05-01T01:32:27.464Z,100748.87
2023-05-01T01:37:41.051Z,100748.75
2023-05-01T01:43:07.949Z,100744.34
2023-05-01T01:48:14.840Z,100760.53
2023-05-01T01:53:19.804Z,100738.94
2023-05-01T01:58:26.477Z,100758.94
2023-05-01T02:03:30.965Z,100723.06
2023-05-01T02:08:36.128Z,100744.31
2023-05-01T02:13:40.899Z,100739.75
2023-05-01T02:18:46.568Z,100722.28
2023-05-01T02:23:49.180Z,100737.84
2023-05-01T02:28:51.339Z,100746.28
2023-05-01T02:33:53.500Z,100746.41
2023-05-01T02:38:56.163Z,100746.50
2023-05-01T02:44:04.468Z,100758.41
2023-05-01T02:49:07.293Z,100757.84
2023-05-01T02:54:09.917Z,100759.25
2023-05-01T02:59:12.173Z,100739.47
2023-05-01T03:04:14.317Z,100757.66
2023-05-01T03:09:17.284Z,100760.09
2023-05-01T03:14:19.435Z,100754.91
2023-05-01T03:19:21.569Z,100764.25
2023-05-01T03:24:24.400Z,100749.84
2023-05-01T03:29:26.922Z,100772.19
2023-05-01T03:34:29.621Z,100774.31
2023-05-01T03:39:32.365Z,100765.25
2023-05-01T03:44:34.505Z,100780.16
2023-05-01T03:49:36.633Z,100783.34
2023-05-01T03:54:39.496Z,100788.44
2023-05-01T03:59:43.850Z,100775.84
2023-05-01T04:04:46.028Z,100786.25
2023-05-01T04:09:48.557Z,100787.91
2023-05-01T04:14:50.709Z,100796.75
2023-05-01T04:19:53.995Z,100780.44
2023-05-01T04:24:56.705Z,100783.03
2023-05-01T04:29:59.024Z,100776.19
2023-05-01T04:35:01.381Z,100781.81
2023-05-01T04:40:03.802Z,100803.03
2023-05-01T04:45:07.050Z,100799.50
2023-05-01T04:50:09.756Z,100789.03
2023-05-01T04:55:11.896Z,100791.31
2023-05-01T05:00:15.019Z,100793.50
2023-05-01T05:05:17.170Z,100822.47
2023-05-01T05:10:19.427Z,100819.94
2023-05-01T05:15:21.668Z,100806.72
2023-05-01T05:20:24.309Z,100808.72
2023-05-01T05:25:26.816Z,100819.81
2023-05-01T05:30:28.971Z,100821.28
2023-05-01T05:35:31.242Z,100832.97
2023-05-01T05:40:33.462Z,100821.03
2023-05-01T05:45:36.311Z,100825.81
2023-05-01T05:50:39.426Z,100820.09
2023-05-01T05:55:43.443Z,100824.44
2023-05-01T06:00:48.823Z,100843.25
2023-05-01T06:05:51.145Z,100824.31
2023-05-01T06:10:53.415Z,100823.84
2023-05-01T06:15:55.734Z,100832.16
2023-05-01T06:20:58.397Z,100832.97
2023-05-01T06:26:00.731Z,100832.72
2023-05-01T06:31:03.490Z,100823.03
2023-05-01T06:36:06.017Z,100848.09
2023-05-01T06:41:08.247Z,100844.44
2023-05-01T06:46:10.571Z,100835.34
2023-05-01T06:51:16.011Z,100847.37
2023-05-01T06:56:18.179Z,100828.62
2023-05-01T07:01:20.573Z,100840.06
2023-05-01T07:06:22.945Z,100835.28
2023-05-01T07:11:27.003Z,100830.16
2023-05-01T07:16:29.253Z,100838.56
2023-05-01T07:21:32.432Z,100833.44
2023-05-01T07:26:35.258Z,100845.66
2023-05-01T07:31:39.190Z,100834.28
2023-05-01T07:36:41.717Z,100835.75
2023-05-01T07:41:44.317Z,100841.44
2023-05-01T07:46:47.789Z,100832.00
2023-05-01T07:51:52.768Z,100827.94
2023-05-01T07:56:54.968Z,100833.16
2023-05-01T08:01:57.321Z,100831.78
2023-05-01T08:06:59.608Z,100826.31
2023-05-01T08:12:03.936Z,100829.34
2023-05-01T08:17:06.221Z,100830.47
2023-05-01T08:22:08.502Z,100825.19
2023-05-01T08:27:10.765Z,100819.16
2023-05-01T08:32:12.962Z,100828.78
2023-05-01T08:37:15.109Z,100805.19
2023-05-01T08:42:17.940Z,100808.53
2023-05-01T08:47:20.748Z,100816.50
2023-05-01T08:52:24.062Z,100806.94
2023-05-01T08:57:26.830Z,100800.69
2023-05-01T09:02:29.937Z,100791.84
2023-05-01T09:07:32.332Z,100799.47
2023-05-01T09:12:35.622Z,100792.97
2023-05-01T09:17:38.124Z,100790.00
2023-05-01T09:22:40.407Z,100795.44
2023-05-01T09:27:43.817Z,100784.94
2023-05-01T09:32:46.041Z,100780.91
2023-05-01T09:37:50.215Z,100768.72
2023-05-01T09:42:55.026Z,100776.72
2023-05-01T09:48:12.136Z,100765.87
2023-05-01T09:53:14.973Z,100774.16
2023-05-01T09:58:29.457Z,100762.53
2023-05-01T10:03:32.729Z,100766.69
2023-05-01T10:08:46.455Z,100756.31
2023-05-01T10:14:06.738Z,100744.56
2023-05-01T10:19:10.725Z,100734.78
2023-05-01T10:24:15.227Z,100742.75
2023-05-01T10:29:20.973Z,100732.16
2023-05-01T10:34:27.756Z,100723.84
2023-05-01T10:39:32.376Z,100724.25
2023-05-01T10:44:37.674Z,100711.44
2023-05-01T10:50:04.756Z,100704.13
2023-05-01T10:55:36.457Z,100694.37
2023-05-01T11:00:38.839Z,100696.09
2023-05-01T11:06:00.143Z,100680.84
2023-05-01T11:11:23.525Z,100686.19
2023-05-01T11:16:38.194Z,100677.22
2023-05-01T11:21:42.065Z,100680.03
2023-05-01T11:26:44.932Z,100665.66
2023-05-01T11:31:48.622Z,100658.97
2023-05-01T11:36:52.499Z,100660.63
2023-05-01T11:42:09.095Z,100641.38
2023-05-01T11:47:11.397Z,100637.34
2023-05-01T11:52:14.106Z,100633.81
2023-05-01T11:57:16.242Z,100631.03
2023-05-01T12:02:20.406Z,100634.78
2023-05-01T12:07:23.426Z,100627.63
2023-05-01T12:12:26.421Z,100622.22
2023-05-01T12:22:50.511Z,100613.97
2023-05-01T12:27:53.729Z,100605.81
2023-05-01T12:32:59.273Z,100601.59
2023-05-01T12:38:11.365Z,100603.00
2023-05-01T12:43:13.664Z,100592.16
2023-05-01T12:48:16.039Z,100582.47
2023-05-01T12:53:18.264Z,100580.84
2023-05-01T12:58:20.711Z,100558.44
2023-05-01T13:03:27.710Z,100554.44
2023-05-01T13:08:36.508Z,100545.63
2023-05-01T13:13:39.051Z,100545.50
2023-05-01T13:18:46.581Z,100548.47
2023-05-01T13:23:56.240Z,100539.03
2023-05-01T13:29:03.860Z,100525.09
2023-05-01T13:34:06.398Z,100515.59
2023-05-01T13:39:08.573Z,100523.59
2023-05-01T13:44:11.736Z,100514.47
2023-05-01T13:49:14.763Z,100519.41
2023-05-01T13:54:17.040Z,100498.53
2023-05-01T13:59:19.304Z,100500.16
2023-05-01T14:04:21.755Z,100504.34
2023-05-01T14:09:24.052Z,100487.72
2023-05-01T14:14:26.237Z,100487.44
2023-05-01T14:19:28.373Z,100481.69
2023-05-01T14:24:30.896Z,100480.41
2023-05-01T14:29:33.025Z,100474.59
2023-05-01T14:34:35.166Z,100481.81
2023-05-01T14:39:39.360Z,100464.13
2023-05-01T14:44:42.435Z,100455.88
2023-05-01T14:49:44.754Z,100461.78
2023-05-01T14:54:47.084Z,100452.72
2023-05-01T14:59:49.266Z,100434.69
2023-05-01T15:04:51.391Z,100437.06
2023-05-01T15:09:53.717Z,100433.66
2023-05-01T15:14:56.163Z,100442.09
2023-05-01T15:19:58.586Z,100436.59
2023-05-01T15:25:01.240Z,100440.72
2023-05-01T15:30:05.482Z,100437.72
2023-05-01T15:35:10.909Z,100434.84
2023-05-01T15:40:13.207Z,100429.84
2023-05-01T15:45:18.004Z,100428.19
2023-05-01T15:50:24.098Z,100426.22
2023-05-01T15:55:26.306Z,100425.72
2023-05-01T16:00:28.545Z,100434.91
2023-05-01T16:05:30.667Z,100426.66
2023-05-01T16:10:37.132Z,100426.56
2023-05-01T16:15:39.381Z,100432.22
2023-05-01T16:20:42.979Z,100437.31
2023-05-01T16:25:45.778Z,100439.09
2023-05-01T16:30:48.675Z,100435.72
2023-05-01T16:35:50.906Z,100429.53
2023-05-01T16:40:57.638Z,100430.66
2023-05-01T16:46:03.581Z,100433.16
2023-05-01T16:51:09.134Z,100439.16
2023-05-01T16:56:11.583Z,100433.47
2023-05-01T17:01:13.819Z,100432.56
2023-05-01T17:06:16.274Z,100426.87
2023-05-01T17:11:19.071Z,100418.78
2023-05-01T17:16:21.551Z,100431.91
2023-05-01T17:21:27.161Z,100418.06
2023-05-01T17:26:29.489Z,100432.63
2023-05-01T17:31:32.316Z,100436.63
2023-05-01T17:36:36.933Z,100437.97
2023-05-01T17:41:39.121Z,100429.63
2023-05-01T17:46:41.358Z,100434.06
2023-05-01T17:51:45.290Z,100425.78
2023-05-01T17:56:47.521Z,100427.00
2023-05-01T18:01:50.017Z,100435.78
2023-05-01T18:06:52.526Z,100428.00
2023-05-01T18:11:54.803Z,100430.94
2023-05-01T18:16:57.261Z,100428.34
2023-05-01T18:21:59.490Z,100434.34
2023-05-01T18:27:01.684Z,100438.97
2023-05-01T18:32:04.748Z,100445.38
2023-05-01T18:37:06.965Z,100451.06
2023-05-01T18:42:10.144Z,100448.72
2023-05-01T18:47:12.319Z,100442.88
2023-05-01T18:52:14.781Z,100450.31
2023-05-01T18:57:17.090Z,100458.31
2023-05-01T19:02:19.545Z,100465.09
2023-05-01T19:07:21.772Z,100467.66
2023-05-01T19:12:23.891Z,100471.97
2023-05-01T19:17:26.317Z,100471.13
2023-05-01T19:22:28.571Z,100469.47
2023-05-01T19:27:31.268Z,100485.38
2023-05-01T19:32:33.622Z,100479.62
2023-05-01T19:37:36.165Z,100482.59
2023-05-01T19:42:38.355Z,100481.66
2023-05-01T19:47:40.717Z,100474.97
2023-05-01T19:52:42.904Z,100476.25
2023-05-01T19:57:45.296Z,100482.13
2023-05-01T20:02:47.693Z,100478.16
2023-05-01T20:07:50.021Z,100489.69
2023-05-01T20:12:52.213Z,100476.59
2023-05-01T20:17:54.483Z,100484.53
2023-05-01T20:23:10.190Z,100481.13
2023-05-01T20:28:14.978Z,100475.19
2023-05-01T20:33:17.787Z,100481.28
2023-05-01T20:38:20.129Z,100474.53
2023-05-01T20:43:22.276Z,100490.75
2023-05-01T20:48:25.142Z,100486.12
2023-05-01T20:53:27.375Z,100486.78
2023-05-01T20:58:29.580Z,100492.84
2023-05-01T21:03:33.038Z,100496.91
2023-05-01T21:08:35.393Z,100501.53
2023-05-01T21:13:37.592Z,100503.06
2023-05-01T21:18:39.939Z,100508.13
2023-05-01T21:23:47.968Z,100500.72
2023-05-01T21:28:50.150Z,100513.06
2023-05-01T21:33:53.374Z,100517.12
2023-05-01T21:38:55.747Z,100511.94
2023-05-01T21:43:57.943Z,100525.47
2023-05-01T21:49:00.070Z,100519.56
2023-05-01T21:54:04.824Z,100523.84
2023-05-01T21:59:06.987Z,100518.31
2023-05-01T22:04:09.470Z,100518.09
2023-05-01T22:09:11.617Z,100523.44
2023-05-01T22:14:13.876Z,100523.22
2023-05-01T22:19:16.627Z,100521.50
2023-05-01T22:24:19.044Z,100519.56
2023-05-01T22:29:21.240Z,100518.63
2023-05-01T22:34:23.348Z,100520.00
2023-05-01T22:39:26.179Z,100526.28
2023-05-01T22:44:28.512Z,100521.66
2023-05-01T22:49:32.768Z,100528.53
2023-05-01T22:54:35.107Z,100519.91
2023-05-01T22:59:39.603Z,100527.06
2023-05-01T23:04:42.707Z,100518.25
2023-05-01T23:09:44.870Z,100524.16
2023-05-01T23:14:47.103Z,100526.47
2023-05-01T23:19:50.178Z,100521.59
2023-05-01T23:24:52.458Z,100518.41
2023-05-01T23:29:59.899Z,100518.19
2023-05-01T23:35:12.733Z,100513.81
2023-05-01T23:40:15.038Z,100513.59
2023-05-01T23:45:17.426Z,100518.28
2023-05-01T23:50:19.730Z,100513.31
2023-05-01T23:55:22.002Z,100518.25
